createdAt,value
2022-10-03T00:09:46.752Z,9.49
2022-10-03T00:19:59.648Z,9.51
2022-10-03T00:30:14.869Z,9.61
2022-10-03T00:41:02.612Z,9.66
2022-10-03T00:51:26.363Z,9.69
2022-10-03T01:01:34.583Z,9.69
2022-10-03T01:11:42.571Z,9.67
2022-10-03T01:22:05.620Z,9.66
2022-10-03T01:32:14.043Z,9.65
2022-10-03T01:42:30.483Z,9.53
2022-10-03T01:52:37.764Z,9.49
2022-10-03T02:02:44.055Z,9.55
2022-10-03T02:12:54.559Z,9.65
2022-10-03T02:23:02.497Z,9.73
2022-10-03T02:33:44.649Z,9.78
2022-10-03T02:44:18.633Z,9.84
2022-10-03T02:55:05.923Z,9.88
2022-10-03T03:05:43.998Z,9.91
2022-10-03T03:16:15.178Z,9.93
2022-10-03T03:26:41.968Z,9.92
2022-10-03T03:36:46.641Z,9.93
2022-10-03T03:46:58.059Z,9.92
2022-10-03T03:57:16.276Z,9.93
2022-10-03T04:07:32.226Z,9.95
2022-10-03T04:17:59.754Z,9.90
2022-10-03T04:28:33.273Z,9.84
2022-10-03T04:38:42.442Z,9.77
2022-10-03T04:48:51.034Z,9.70
2022-10-03T04:59:05.259Z,9.65
2022-10-03T05:09:15.076Z,9.66
2022-10-03T05:19:56.071Z,9.69
2022-10-03T05:30:04.933Z,9.74
2022-10-03T05:40:08.919Z,9.79
2022-10-03T05:50:35.111Z,9.80
2022-10-03T06:00:53.613Z,9.85
2022-10-03T06:11:02.981Z,9.83
2022-10-03T06:21:18.353Z,9.65
2022-10-03T06:31:57.022Z,9.57
2022-10-03T06:42:37.833Z,9.62
2022-10-03T06:52:56.667Z,9.78
2022-10-03T07:03:39.964Z,9.96
2022-10-03T07:14:06.121Z,9.97
2022-10-03T07:24:27.920Z,9.90
2022-10-03T07:34:59.897Z,9.90
2022-10-03T07:45:43.664Z,9.92
2022-10-03T07:55:58.519Z,9.99
2022-10-03T08:06:21.463Z,10.47
2022-10-03T08:16:31.096Z,11.42
2022-10-03T08:26:59.743Z,11.67
2022-10-03T08:37:23.404Z,11.45
2022-10-03T08:47:50.288Z,11.09
2022-10-03T08:58:14.729Z,10.89
2022-10-03T09:08:52.499Z,10.74
2022-10-03T09:19:18.283Z,10.66
2022-10-03T09:29:50.719Z,10.67
2022-10-03T09:40:38.613Z,10.73
2022-10-03T09:51:03.598Z,10.75
2022-10-03T10:01:20.573Z,10.85
2022-10-03T10:11:35.062Z,10.95
2022-10-03T10:22:17.003Z,10.96
2022-10-03T10:32:53.788Z,10.90
2022-10-03T10:43:34.411Z,10.85
2022-10-03T10:54:14.054Z,10.84
2022-10-03T11:04:54.025Z,10.94
2022-10-03T11:15:47.917Z,11.48
2022-10-03T11:26:39.906Z,12.29
2022-10-03T11:37:09.727Z,12.78
2022-10-03T11:47:41.730Z,12.56
2022-10-03T11:57:47.383Z,12.74
2022-10-03T12:08:11.462Z,12.78
2022-10-03T12:18:17.144Z,12.88
2022-10-03T12:28:27.464Z,13.01
2022-10-03T12:38:38.274Z,13.06
2022-10-03T12:48:48.067Z,13.22
2022-10-03T12:59:14.585Z,13.33
2022-10-03T13:09:33.179Z,13.29
2022-10-03T13:19:42.844Z,13.54
2022-10-03T13:29:50.379Z,13.72
2022-10-03T13:40:03.604Z,13.61
2022-10-03T13:50:16.886Z,13.23
2022-10-03T14:00:26.857Z,13.08
2022-10-03T14:10:51.091Z,13.03
2022-10-03T14:21:32.963Z,12.67
2022-10-03T14:31:46.654Z,12.45
2022-10-03T14:42:14.464Z,12.67
2022-10-03T14:52:21.704Z,12.82
2022-10-03T15:02:30.426Z,12.69
2022-10-03T15:12:42.659Z,12.46
2022-10-03T15:23:00.732Z,12.26
2022-10-03T15:33:07.454Z,12.11
2022-10-03T15:43:24.218Z,11.97
2022-10-03T15:53:37.278Z,11.81
2022-10-03T16:03:48.552Z,11.71
2022-10-03T16:14:00.609Z,11.62
2022-10-03T16:24:08.817Z,11.49
2022-10-03T16:44:25.130Z,10.95
2022-10-03T16:54:33.613Z,10.65
2022-10-03T17:04:43.713Z,10.42
2022-10-03T17:14:54.112Z,10.36
2022-10-03T17:25:18.211Z,10.32
2022-10-03T17:35:23.621Z,10.24
2022-10-03T17:45:40.856Z,10.16
2022-10-03T17:55:50.084Z,10.09
2022-10-03T18:06:04.454Z,10.10
2022-10-03T18:16:21.627Z,10.20
2022-10-03T18:26:30.093Z,10.28
2022-10-03T18:36:35.105Z,10.31
2022-10-03T18:46:43.335Z,10.31
2022-10-03T18:57:02.606Z,10.32
2022-10-03T19:07:12.640Z,10.32
2022-10-03T19:17:25.856Z,10.32
2022-10-03T19:27:40.828Z,10.35
2022-10-03T19:37:51.397Z,10.39
2022-10-03T19:48:02.829Z,10.44
2022-10-03T19:58:23.841Z,10.45
2022-10-03T20:08:30.424Z,10.48
2022-10-03T20:18:38.473Z,10.48
2022-10-03T20:29:06.549Z,10.50
2022-10-03T20:39:13.209Z,10.48
2022-10-03T20:49:24.073Z,10.40
2022-10-03T20:59:30.824Z,10.35
2022-10-03T21:29:55.091Z,10.31
2022-10-03T21:40:07.872Z,10.33
2022-10-03T21:50:18.324Z,10.34
2022-10-03T22:00:25.785Z,10.33
2022-10-03T22:10:40.748Z,10.31
2022-10-03T22:20:49.055Z,10.30
2022-10-03T22:30:55.087Z,10.27
2022-10-03T22:41:05.515Z,10.25
2022-10-03T22:51:16.269Z,10.23
2022-10-03T23:01:22.658Z,10.25
2022-10-03T23:11:32.223Z,10.22
2022-10-03T23:21:44.902Z,10.21
2022-10-03T23:31:50.641Z,10.21
2022-10-03T23:42:01.049Z,10.22
2022-10-03T23:52:11.539Z,10.17
